Flight Track Log - Related Links

Times and Time Zones

All times are in EDT time to prevent confusion due to time zone crossing. See the N864KB flight status page for this flight to view local times or setup timezone preferences in your user account.

Time Position Orientation Groundspeed Altitude Reporting Facility
EDT Latitude Longitude Course Direction KTS MPH feet Rate Location/Type
Fri 05:48:36 PM 37.3833 -121.9500 322° Northwest 165 190 1,300  Level Northern Cal TRACON
Fri 05:49:30 PM 37.4167 -121.9833 322° Northwest 190 219 5,100 4,105 Climbing Northern Cal TRACON
Fri 05:50:30 PM 37.4500 -121.9333 50° Northeast 254 292 9,100 4,000 Climbing Northern Cal TRACON
Fri 05:51:30 PM 37.4000 -121.8667 133° Southeast 298 343 13,100 3,764 Climbing Northern Cal TRACON
Fri 05:52:20 PM 37.3403 -121.8097 143° Southeast 306 352 16,000 2,893 Climbing Oakland Center
Fri 05:53:22 PM 37.2681 -121.7258 137° Southeast 347 399 18,500 2,488 Climbing Oakland Center
Fri 05:54:23 PM 37.1883 -121.6317 137° Southeast 388 447 21,100 2,585 Climbing Oakland Center
Fri 05:55:25 PM 37.1050 -121.5328 137° Southeast 407 468 23,800 1,854 Climbing Oakland Center
Fri 05:56:26 PM 37.0042 -121.4236 139° Southeast 442 509 24,900 537 Climbing Oakland Center
Fri 05:57:28 PM 36.9031 -121.3097 138° Southeast 484 557 24,900  Level Oakland Center
Fri 05:58:29 PM 36.8086 -121.2089 139° Southeast 491 565 24,900  Level Oakland Center
Fri 05:59:31 PM 36.6833 -121.0753 139° Southeast 494 568 24,900  Level Oakland Center
Fri 06:00:32 PM 36.5794 -120.9644 139° Southeast 493 567 24,900  Level Oakland Center
Fri 06:01:33 PM 36.4753 -120.8528 139° Southeast 493 567 24,900  Level Oakland Center
Fri 06:02:35 PM 36.3714 -120.7394 139° Southeast 495 570 24,900  Level Oakland Center
Fri 06:03:36 PM 36.2653 -120.6278 140° Southeast 499 574 24,900  Level Oakland Center
Fri 06:04:38 PM 36.1594 -120.5161 140° Southeast 498 573 24,900  Level Oakland Center
Fri 06:05:39 PM 36.0536 -120.4017 139° Southeast 504 580 24,900  Level Oakland Center
Fri 06:06:41 PM 35.9500 -120.2956 140° Southeast 471 542 24,900  Level Oakland Center
Fri 06:07:42 PM 35.8453 -120.1858 140° Southeast 486 559 24,900  Level Oakland Center
Fri 06:08:43 PM 35.7417 -120.0764 139° Southeast 487 560 24,900  Level Oakland Center
Fri 06:09:45 PM 35.6139 -119.9464 140° Southeast 490 564 24,900  Level Oakland Center
Fri 06:10:46 PM 35.5008 -119.8514 146° Southeast 486 559 24,900  Level Oakland Center
Fri 06:11:47 PM 35.3889 -119.7544 145° Southeast 488 562 24,900  Level Oakland Center
Fri 06:12:03 PM 35.3669 -119.7356 145° Southeast 489 563 24,900  Level Los Angeles Center
Fri 06:13:05 PM 35.2553 -119.6400 145° Southeast 487 560 24,900 -435 Level Los Angeles Center
Fri 06:14:07 PM 35.1456 -119.5464 145° Southeast 482 555 24,000 -532 Descending Los Angeles Center
Fri 06:15:09 PM 35.0408 -119.4578 145° Southeast 462 532 23,800 -1,306 Descending Los Angeles Center
Fri 06:16:11 PM 34.9242 -119.3578 145° Southeast 431 496 21,300 -2,371 Descending Los Angeles Center
Fri 06:17:13 PM 34.8278 -119.2753 145° Southeast 424 488 18,900 -2,323 Descending Los Angeles Center
Fri 06:18:15 PM 34.7317 -119.1967 146° Southeast 416 479 16,500 -2,371 Descending Los Angeles Center
Fri 06:19:17 PM 34.6339 -119.1144 145° Southeast 403 464 14,000 -2,352 Descending Los Angeles Center
Fri 06:20:20 PM 34.5439 -119.0389 145° Southeast 366 421 11,600 -1,584 Descending Los Angeles Center
Fri 06:21:22 PM 34.4692 -118.9744 145° Southeast 325 374 10,700 -1,161 Descending Los Angeles Center
Fri 06:22:24 PM 34.4283 -118.9006 124° Southeast 287 330 9,200 -1,440 Descending Los Angeles Center
Fri 06:23:27 PM 34.4231 -118.8136 94° East 261 300 7,700 -1,258 Descending Los Angeles Center
Fri 06:24:28 PM 34.4222 -118.7308 91° East 251 289 6,600 -1,171 Descending Los Angeles Center
Fri 06:25:30 PM 34.4375 -118.6658 74° East 216 249 5,300 -726 Descending Los Angeles Center
Fri 06:26:32 PM 34.4350 -118.5828 92° East 201 231 5,100 -339 Descending Los Angeles Center
Fri 06:27:34 PM 34.3967 -118.5325 133° Southeast 206 237 4,600 -581 Descending Los Angeles Center
Fri 06:28:36 PM 34.3461 -118.5039 155° Southeast 203 234 3,900 -816 Descending Los Angeles Center
Fri 06:29:39 PM 34.2944 -118.4967 173° South 194 223 2,900 -1,071 Descending Los Angeles Center
Fri 06:30:28 PM 34.2500 -118.5000 184° South 140 161 1,900 -1,224 Descending Southern California TRACON
Fri 06:33:00 PM 34.2098 -118.4900 180° South  Level Estimated
Fri 06:40:00 PM 34.2098 -118.4900 180° South  Level Estimated

Login

Don't have an account? Register now (free) for customized features, flight alerts, and more!